Glen Allan, MS

7:10 AM CDT on July 07, 2015 (GMT -0500)
Lake Hall Rd near Fawnwood Comm Ctr | | Change Station
CLOSE
Current Station
Personal Weather Station
Location: Lake Village, AR
Elevation: 118 ft
Nearby Weather Stations
Active Advisory: Flood Warning Active Notice: Local Storm Report

Elev 118 ft 33.28 °N, 91.24 °W | Updated 10 minutes ago

Clear
Clear
77.0 °F
Feels Like 78 °F
N
3.0
Wind Variable Wind from SSW
Gusts 4.0 mph

Today
High -- | Low -- °F
--% Chance of Precip.
Yesterday
High -- | Low -- °F
Precip. -- in
6:01 AM 8:16 PM
Waning Gibbous, 65% visible
Pressure 30.07 in
Visibility 8.0 miles
Clouds Clear
Heat Index 78 °F
Dew Point 76 °F
Humidity 96%
Rainfall 0.00 in
Snow Depth Not available.
UV 0 out of 12
Pollen 3.60 out of 12
Air Quality Not available.
Flu Activity Not available.
METAR KGLH 071153Z AUTO 20008KT 8SM CLR 26/24 A3006 RMK AO2 SLP181 T02560239 10261 20244 53006

More Conditions Fewer Conditions

Pressure 30.07 in
Visibility 8.0 miles
Clouds Clear
Heat Index 78 °F
Dew Point 76 °F
Humidity 96%
Rainfall 0.00 in
Snow Depth Not available.
UV 0 out of 12
Pollen 3.60 out of 12
Air Quality Not available.
Flu Activity Not available.
METAR KGLH 071153Z AUTO 20008KT 8SM CLR 26/24 A3006 RMK AO2 SLP181 T02560239 10261 20244 53006

More Conditions Fewer Conditions

10-Day Weather Forecast

×

Almanac

Astronomy

Jul. 07, 2015 Rise Set
Actual Time
Civil Twilight
Nautical Twilight
Astronomical Twilight
Moon
Length of Visible Light
Length of Day
Tomorrow will be .
, % of the Moon is Illuminated

Today's Extremes

State Highs State Lows

Community

WunderPhotos

Upload Photos

1,835,782 photos uploaded!

WunderBlogs® & News

Nearby

Air Quality

  Air Quality AQ Index Pollutant
Not available.

Snow Depth

Station Depth Elevation

Earthquake Activity

City Distance Mag. Time & Date
Minimum magnitude displayed is 2.5.

Coastal Water Temperatures

Place Temperature

Stations

Nearby Weather Stations

Station Location Temp. Windchill Dew Point Humidity Wind Precip. Elev Updated Type
                   
Flood Warning
Statement as of 9:39 PM CDT on July 06, 2015


The Flood Warning continues for
the Mississippi River near Greenville
* until further notice.
* At 9:00 PM Monday the stage was 48.1 feet.
* Minor flooding is occurring and minor flooding is forecast.
* Flood stage is 48 feet.
* Forecast... the river will continue rising to a crest near 49 feet by
Thursday July 16.
* Impact... at 48 feet... water begins to cover the dirt Road leading
to the farmers grain terminal facility which is north of the
Greenville bridge.
* Impact... at 45 feet... Lower Lake Ferguson Road is closed. Warfield
Point park is closed.


              Flood observed forecast 7 am crest
location stg stg day time Tue Wed Thu crest time date

Lower Mississippi River
Greenville 48 48.1 Mon 9 PM 48.1 48.2 48.3 49.0 7 am 7/16



Lat... Lon 3277 9123 3340 9128 3340 9105 3283 9101
      3277 9101 3278 9111